Time;durP1;ratioP1;P1;durP2;ratioP2;P2;SDS_P1;SDS_P2;PMS_P1;PMS_P2;Temp;Humidity;BMP_temperature;BMP_pressure;BME280_temperature;BME280_humidity;BME280_pressure;Samples;Min_cycle;Max_cycle;Signal;HPM_P1;HPM_P2
2022/04/11 00:00:34;;;;;;;8.00;4.32;;;5.20;99.90;;;;;;4898708;29;20044;-81
2022/04/11 00:03:00;;;;;;;8.07;4.63;;;5.20;99.90;;;;;;4895160;29;20041;-83
2022/04/11 00:05:25;;;;;;;9.13;4.55;;;5.20;99.90;;;;;;4886591;29;20210;-83
2022/04/11 00:07:51;;;;;;;7.75;4.82;;;5.20;99.90;;;;;;4886323;29;20312;-83
2022/04/11 00:10:17;;;;;;;6.82;4.28;;;5.20;99.90;;;;;;4891531;29;20078;-83
2022/04/11 00:12:43;;;;;;;12.88;4.90;;;5.20;99.90;;;;;;4893947;29;20544;-84
2022/04/11 00:15:10;;;;;;;11.50;4.43;;;5.10;99.90;;;;;;4888355;29;20052;-82
2022/04/11 00:17:36;;;;;;;8.00;4.47;;;5.10;99.90;;;;;;4888034;29;20033;-84
2022/04/11 00:20:04;;;;;;;6.75;4.72;;;5.10;99.90;;;;;;4890570;29;20556;-81
2022/04/11 00:22:30;;;;;;;10.13;4.88;;;5.10;99.90;;;;;;4890960;29;20059;-85
2022/04/11 00:24:56;;;;;;;8.75;4.13;;;5.10;99.90;;;;;;4834231;29;1704451;-85
2022/04/11 00:27:22;;;;;;;5.68;3.83;;;5.20;99.90;;;;;;4891332;29;20674;-84
2022/04/11 00:29:47;;;;;;;7.45;4.97;;;5.20;99.90;;;;;;4891231;29;20053;-84
2022/04/11 00:32:13;;;;;;;6.72;4.53;;;5.20;99.90;;;;;;4889309;29;20037;-84
2022/04/11 00:34:39;;;;;;;7.47;4.40;;;5.20;99.90;;;;;;4889353;29;20383;-83
2022/04/11 00:37:05;;;;;;;8.77;4.70;;;5.20;99.90;;;;;;4896312;29;20426;-86
2022/04/11 00:39:31;;;;;;;9.52;4.95;;;5.30;99.90;;;;;;4894128;29;20088;-84
2022/04/11 00:41:57;;;;;;;7.10;4.85;;;5.30;99.90;;;;;;4899313;29;20520;-85
2022/04/11 00:44:23;;;;;;;14.75;4.75;;;5.30;99.90;;;;;;4889946;29;20021;-85
2022/04/11 00:46:48;;;;;;;9.38;5.07;;;5.30;99.90;;;;;;4890840;29;20033;-84
2022/04/11 00:49:14;;;;;;;7.43;4.95;;;5.30;99.90;;;;;;4891986;29;20050;-85
2022/04/11 00:51:40;;;;;;;8.93;5.63;;;5.30;99.90;;;;;;4888892;29;20040;-88
2022/04/11 00:54:08;;;;;;;10.18;5.60;;;5.30;99.90;;;;;;4891176;29;20033;-85
2022/04/11 00:56:38;;;;;;;12.10;5.57;;;5.20;99.90;;;;;;4889641;29;20096;-84
2022/04/11 00:59:04;;;;;;;9.90;6.03;;;5.20;99.90;;;;;;4890910;29;20092;-86
2022/04/11 01:01:30;;;;;;;10.38;5.38;;;5.20;99.90;;;;;;4889531;29;20057;-84
2022/04/11 01:03:57;;;;;;;10.60;5.68;;;5.20;99.90;;;;;;4892679;29;20101;-84
2022/04/11 01:06:23;;;;;;;8.10;5.65;;;5.20;99.90;;;;;;4892866;29;20036;-84
2022/04/11 01:08:49;;;;;;;10.05;5.55;;;5.20;99.90;;;;;;4892549;29;20053;-84
2022/04/11 01:11:15;;;;;;;10.98;5.70;;;5.20;99.90;;;;;;4890880;29;20029;-83
2022/04/11 01:13:44;;;;;;;8.02;5.50;;;5.20;99.90;;;;;;4892784;29;20383;-82
2022/04/11 01:16:10;;;;;;;8.45;5.50;;;5.20;99.90;;;;;;4890701;29;20442;-82
2022/04/11 01:18:38;;;;;;;9.25;5.68;;;5.10;99.90;;;;;;4894419;29;20036;-82
2022/04/11 01:21:08;;;;;;;10.15;6.18;;;5.10;99.90;;;;;;4900157;29;20027;-83
2022/04/11 01:23:35;;;;;;;11.18;6.03;;;5.10;99.90;;;;;;4896802;29;20049;-81
2022/04/11 01:26:02;;;;;;;14.73;6.40;;;5.10;99.90;;;;;;4893446;29;20043;-85
2022/04/11 01:28:28;;;;;;;10.35;6.07;;;5.00;99.90;;;;;;4893186;29;20081;-83
2022/04/11 01:30:55;;;;;;;10.52;5.80;;;5.00;99.90;;;;;;4891777;29;20032;-82
2022/04/11 01:33:27;;;;;;;10.65;5.90;;;5.10;99.90;;;;;;4901102;29;20037;-83
2022/04/11 01:35:55;;;;;;;10.63;5.30;;;5.10;99.90;;;;;;4899013;29;20025;-84
2022/04/11 01:38:21;;;;;;;9.38;5.63;;;5.10;99.90;;;;;;4897600;29;20269;-83
2022/04/11 01:40:52;;;;;;;12.23;5.82;;;5.10;99.90;;;;;;4880558;29;20093;-83
2022/04/11 01:43:18;;;;;;;10.60;6.00;;;5.20;99.90;;;;;;4900034;29;20045;-83
2022/04/11 01:45:44;;;;;;;6.32;4.90;;;5.10;99.90;;;;;;4885274;29;20020;-82
2022/04/11 01:48:11;;;;;;;18.17;6.22;;;5.10;99.90;;;;;;4900226;29;20037;-83
2022/04/11 01:50:38;;;;;;;10.60;5.53;;;5.10;99.90;;;;;;4899495;29;20029;-83
2022/04/11 01:53:14;;;;;;;8.30;5.50;;;5.10;99.90;;;;;;4895390;29;20493;-84
2022/04/11 01:55:41;;;;;;;9.85;5.72;;;5.10;99.90;;;;;;4893217;29;20041;-83
2022/04/11 01:58:09;;;;;;;10.48;5.78;;;5.10;99.90;;;;;;4897733;29;20013;-82
2022/04/11 02:00:36;;;;;;;17.67;5.95;;;5.10;99.90;;;;;;4903410;29;20054;-82
2022/04/11 02:03:06;;;;;;;10.13;5.70;;;5.10;99.90;;;;;;4900078;29;20040;-83
2022/04/11 02:05:33;;;;;;;10.85;5.60;;;5.10;99.90;;;;;;4878747;29;20040;-82
2022/04/11 02:08:03;;;;;;;13.45;5.43;;;5.10;99.90;;;;;;4893577;29;20056;-83
2022/04/11 02:10:30;;;;;;;8.20;5.53;;;5.00;99.90;;;;;;4896348;29;20021;-83
2022/04/11 02:12:56;;;;;;;8.63;6.28;;;5.00;99.90;;;;;;4898449;29;20032;-82
2022/04/11 02:15:23;;;;;;;7.75;5.18;;;5.10;99.90;;;;;;4901372;29;20032;-82
2022/04/11 02:17:50;;;;;;;10.20;5.72;;;5.00;99.90;;;;;;4904084;29;20033;-82
2022/04/11 02:20:16;;;;;;;8.40;5.55;;;5.10;99.90;;;;;;4903459;29;20017;-81
2022/04/11 02:22:53;;;;;;;8.18;5.22;;;5.10;99.90;;;;;;4903630;29;20093;-81
2022/04/11 02:25:21;;;;;;;8.63;5.10;;;5.10;99.90;;;;;;4902682;29;20045;-82
2022/04/11 02:27:48;;;;;;;8.63;4.85;;;5.20;99.90;;;;;;4902717;29;20037;-82
2022/04/11 02:30:16;;;;;;;9.50;5.85;;;5.20;99.90;;;;;;4902969;29;20112;-83
2022/04/11 02:32:43;;;;;;;11.50;5.97;;;5.30;99.90;;;;;;4887141;29;20017;-83
2022/04/11 02:35:10;;;;;;;13.45;5.75;;;5.30;99.90;;;;;;4887235;29;20032;-84
2022/04/11 02:37:37;;;;;;;13.30;5.68;;;5.20;99.90;;;;;;4901847;29;20017;-83
2022/04/11 02:40:05;;;;;;;10.82;6.05;;;5.20;99.90;;;;;;4903142;29;20021;-79
2022/04/11 02:42:35;;;;;;;11.25;5.57;;;5.20;99.90;;;;;;4903184;29;20033;-82
2022/04/11 02:45:08;;;;;;;10.50;5.80;;;5.10;99.90;;;;;;4903096;29;20068;-82
2022/04/11 02:47:34;;;;;;;10.70;5.53;;;5.10;99.90;;;;;;4903927;29;20025;-81
2022/04/11 02:50:01;;;;;;;8.00;5.32;;;5.00;99.90;;;;;;4903819;29;20017;-81
2022/04/11 02:52:41;;;;;;;10.23;6.10;;;5.00;99.90;;;;;;4902679;29;20097;-82
2022/04/11 02:55:08;;;;;;;14.80;5.80;;;5.00;99.90;;;;;;4903905;29;20028;-86
2022/04/11 02:57:36;;;;;;;9.93;5.82;;;5.00;99.90;;;;;;4902689;29;20097;-84
2022/04/11 03:00:07;;;;;;;11.50;5.57;;;5.00;99.90;;;;;;4902901;29;20025;-84
2022/04/11 03:02:33;;;;;;;12.77;5.88;;;5.00;99.90;;;;;;4903108;29;20029;-86
2022/04/11 03:04:59;;;;;;;11.43;5.90;;;4.90;99.90;;;;;;4902775;29;20036;-84
2022/04/11 03:07:27;;;;;;;12.13;5.85;;;4.90;99.90;;;;;;4886921;29;20045;-84
2022/04/11 03:09:55;;;;;;;9.77;5.50;;;4.80;99.90;;;;;;4896178;29;20036;-85
2022/04/11 03:12:22;;;;;;;8.43;5.80;;;4.80;99.90;;;;;;4892170;29;20048;-84
2022/04/11 03:14:51;;;;;;;8.63;5.95;;;4.90;99.90;;;;;;4895485;29;20017;-85
2022/04/11 03:17:19;;;;;;;12.18;6.20;;;4.80;99.90;;;;;;4885134;29;20089;-85
2022/04/11 03:19:45;;;;;;;10.80;5.50;;;4.90;99.90;;;;;;4900912;29;20029;-83
2022/04/11 03:22:12;;;;;;;10.25;5.65;;;4.90;99.90;;;;;;4885894;29;20055;-84
2022/04/11 03:24:41;;;;;;;10.38;5.75;;;4.90;99.90;;;;;;4901228;29;20025;-85
2022/04/11 03:27:07;;;;;;;10.88;5.65;;;4.90;99.90;;;;;;4900872;29;20014;-84
2022/04/11 03:29:35;;;;;;;10.77;5.68;;;4.90;99.90;;;;;;4895842;29;20017;-83
2022/04/11 03:32:02;;;;;;;9.05;5.88;;;4.90;99.90;;;;;;4898762;29;20084;-82
2022/04/11 03:34:30;;;;;;;13.30;6.18;;;4.90;99.90;;;;;;4898483;29;20025;-82
2022/04/11 03:36:56;;;;;;;10.00;6.22;;;4.90;99.90;;;;;;4882330;29;20044;-82
2022/04/11 03:39:25;;;;;;;15.05;6.32;;;4.90;99.90;;;;;;4883759;29;20060;-83
2022/04/11 03:41:51;;;;;;;11.82;6.57;;;4.90;99.90;;;;;;4898618;29;20529;-82
2022/04/11 03:44:25;;;;;;;12.45;6.05;;;4.90;99.90;;;;;;4896136;29;20036;-81
2022/04/11 03:46:55;;;;;;;11.82;6.28;;;4.80;99.90;;;;;;4896519;29;20033;-83
2022/04/11 03:49:27;;;;;;;9.90;5.72;;;4.80;99.90;;;;;;4899397;29;20033;-81
2022/04/11 03:51:53;;;;;;;11.00;6.38;;;4.80;99.90;;;;;;4901829;29;20116;-82
2022/04/11 03:54:19;;;;;;;11.55;5.40;;;4.80;99.90;;;;;;4902750;29;20058;-82
2022/04/11 03:56:45;;;;;;;12.82;6.63;;;4.80;99.90;;;;;;4898669;29;20036;-83
2022/04/11 03:59:11;;;;;;;10.90;6.18;;;4.90;99.90;;;;;;4897136;29;20029;-83
2022/04/11 04:01:37;;;;;;;9.93;6.20;;;4.90;99.90;;;;;;4897400;29;20029;-83
2022/04/11 04:04:04;;;;;;;10.52;6.20;;;5.00;99.90;;;;;;4892367;29;20636;-84
2022/04/11 04:06:30;;;;;;;15.45;6.63;;;5.10;99.90;;;;;;4877313;29;20089;-82
2022/04/11 04:08:56;;;;;;;9.30;6.43;;;5.10;99.90;;;;;;4902436;29;20036;-83
2022/04/11 04:11:30;;;;;;;16.67;6.20;;;5.20;99.90;;;;;;4902857;29;20040;-82
2022/04/11 04:14:08;;;;;;;12.68;6.43;;;5.20;99.90;;;;;;4903632;29;20029;-82
2022/04/11 04:16:38;;;;;;;13.05;6.72;;;5.30;99.90;;;;;;4904151;29;20065;-83
2022/04/11 04:19:06;;;;;;;10.10;6.43;;;5.30;99.90;;;;;;4902456;29;20028;-82
2022/04/11 04:21:33;;;;;;;11.75;6.15;;;5.40;99.90;;;;;;4899259;29;20033;-84
2022/04/11 04:23:58;;;;;;;12.77;6.93;;;5.50;99.90;;;;;;4896731;29;20036;-83
2022/04/11 04:26:26;;;;;;;12.93;7.13;;;5.50;99.90;;;;;;4895992;29;20057;-83
2022/04/11 04:28:53;;;;;;;13.75;7.15;;;5.60;99.90;;;;;;4892054;29;20053;-82
2022/04/11 04:31:22;;;;;;;10.40;6.07;;;5.60;99.90;;;;;;4892089;29;20025;-84
2022/04/11 04:33:48;;;;;;;15.63;7.30;;;5.70;99.90;;;;;;4890491;29;20077;-83
2022/04/11 04:36:14;;;;;;;20.27;6.90;;;5.70;99.90;;;;;;4891507;29;20036;-83
2022/04/11 04:38:41;;;;;;;14.63;6.90;;;5.70;99.90;;;;;;4891330;29;20041;-84
2022/04/11 04:41:07;;;;;;;17.08;6.68;;;5.80;99.90;;;;;;4896809;29;20120;-84
2022/04/11 04:43:33;;;;;;;13.65;7.18;;;5.80;99.90;;;;;;4895966;29;20029;-85
2022/04/11 04:46:01;;;;;;;13.38;7.30;;;5.90;99.90;;;;;;4901523;29;20033;-85
2022/04/11 04:48:42;;;;;;;15.25;6.40;;;5.90;99.90;;;;;;4901027;29;20111;-85
2022/04/11 04:51:10;;;;;;;14.23;7.47;;;6.00;99.90;;;;;;4901304;29;20032;-86
2022/04/11 04:53:38;;;;;;;12.05;6.95;;;6.00;99.90;;;;;;4896330;29;20048;-84
2022/04/11 04:56:05;;;;;;;13.85;6.68;;;6.10;99.90;;;;;;4895725;29;20033;-85
2022/04/11 04:58:36;;;;;;;14.10;6.72;;;6.10;99.90;;;;;;4879949;29;20031;-84
2022/04/11 05:01:03;;;;;;;15.70;6.70;;;6.10;99.90;;;;;;4890759;29;20096;-85
2022/04/11 05:03:30;;;;;;;13.15;5.95;;;6.10;99.90;;;;;;4875648;29;20029;-85
2022/04/11 05:05:57;;;;;;;14.27;6.57;;;6.20;99.90;;;;;;4894988;29;20028;-86
2022/04/11 05:08:23;;;;;;;9.68;5.95;;;6.30;99.90;;;;;;4895600;29;20100;-85
2022/04/11 05:10:49;;;;;;;10.32;6.10;;;6.40;99.90;;;;;;4897523;29;20126;-84
2022/04/11 05:13:15;;;;;;;19.00;9.70;;;6.50;99.90;;;;;;4911465;29;20035;-84
2022/04/11 05:15:42;;;;;;;15.77;6.53;;;6.60;99.90;;;;;;4910913;29;20032;-85
2022/04/11 05:18:15;;;;;;;16.45;6.57;;;6.50;99.90;;;;;;4896580;29;20092;-85
2022/04/11 05:20:43;;;;;;;14.13;5.38;;;6.50;99.90;;;;;;4914689;29;20033;-85
2022/04/11 05:23:10;;;;;;;11.20;5.78;;;6.40;99.90;;;;;;4916038;29;20493;-84
2022/04/11 05:25:38;;;;;;;17.05;5.75;;;6.40;99.90;;;;;;4952910;23;20024;-84
2022/04/11 05:28:04;;;;;;;10.75;5.25;;;6.40;99.90;;;;;;4920831;29;20051;-83
2022/04/11 05:30:35;;;;;;;12.27;4.60;;;6.40;99.90;;;;;;4921794;29;20115;-84
2022/04/11 05:33:03;;;;;;;14.00;5.18;;;6.50;99.90;;;;;;4906992;29;20028;-81
2022/04/11 05:35:29;;;;;;;12.18;4.93;;;6.50;99.90;;;;;;4903737;29;20041;-81
2022/04/11 05:37:55;;;;;;;9.00;4.60;;;6.50;99.90;;;;;;4919234;29;20037;-81
2022/04/11 05:40:21;;;;;;;7.18;4.30;;;6.40;99.90;;;;;;4919050;29;20033;-83
2022/04/11 05:42:47;;;;;;;11.35;4.60;;;6.40;99.90;;;;;;4895488;29;20093;-85
2022/04/11 05:45:13;;;;;;;16.23;7.70;;;6.40;99.90;;;;;;4906421;29;20021;-86
2022/04/11 05:47:40;;;;;;;13.85;4.72;;;6.40;99.90;;;;;;4908281;29;20029;-83
2022/04/11 05:50:09;;;;;;;11.35;4.70;;;6.40;99.90;;;;;;4903705;29;20013;-85
2022/04/11 05:52:35;;;;;;;11.15;4.57;;;6.40;99.90;;;;;;4889351;29;20037;-84
2022/04/11 05:55:01;;;;;;;8.77;4.22;;;6.50;99.90;;;;;;4895218;29;20014;-83
2022/04/11 05:57:27;;;;;;;7.72;3.67;;;6.50;99.90;;;;;;4903751;29;20040;-82
2022/04/11 05:59:53;;;;;;;7.10;3.30;;;6.40;99.90;;;;;;4918779;29;20240;-82
2022/04/11 06:02:19;;;;;;;8.60;3.35;;;6.40;99.90;;;;;;4916532;29;20065;-82
2022/04/11 06:04:45;;;;;;;8.07;3.45;;;6.50;99.90;;;;;;4902819;29;20092;-82
2022/04/11 06:07:11;;;;;;;10.15;3.75;;;6.50;99.90;;;;;;4918156;29;20037;-82
2022/04/11 06:09:38;;;;;;;7.53;3.72;;;6.60;99.90;;;;;;4918017;29;20013;-82
2022/04/11 06:12:07;;;;;;;7.40;4.25;;;6.80;99.90;;;;;;4916259;29;20041;-82
2022/04/11 06:14:34;;;;;;;8.50;3.13;;;6.90;99.90;;;;;;4915015;29;20037;-84
2022/04/11 06:16:59;;;;;;;14.68;3.50;;;7.10;99.90;;;;;;4913157;29;20055;-82
2022/04/11 06:19:25;;;;;;;11.23;3.25;;;7.00;99.90;;;;;;4912187;29;20045;-82
2022/04/11 06:21:52;;;;;;;7.40;2.60;;;7.00;99.90;;;;;;4916043;29;20044;-83
2022/04/11 06:24:18;;;;;;;6.72;2.83;;;6.90;99.90;;;;;;4900770;29;20032;-85
2022/04/11 06:26:44;;;;;;;4.43;2.58;;;6.90;99.90;;;;;;4900304;29;20037;-83
2022/04/11 06:29:11;;;;;;;7.10;2.45;;;6.90;99.90;;;;;;4901835;29;20077;-84
2022/04/11 06:31:38;;;;;;;5.65;2.42;;;7.00;99.90;;;;;;4915906;29;20021;-83
2022/04/11 06:34:16;;;;;;;8.70;2.92;;;7.20;99.90;;;;;;4898536;29;20096;-83
2022/04/11 06:36:41;;;;;;;5.85;2.40;;;7.40;99.90;;;;;;4899858;29;20033;-86
2022/04/11 06:39:07;;;;;;;10.93;2.40;;;7.40;99.90;;;;;;4901490;29;20024;-83
2022/04/11 06:41:38;;;;;;;7.22;2.35;;;7.50;99.90;;;;;;4916229;29;20105;-84
2022/04/11 06:44:04;;;;;;;11.50;2.97;;;7.70;99.90;;;;;;4908463;29;20033;-87
2022/04/11 06:46:36;;;;;;;8.43;3.03;;;7.80;99.90;;;;;;4902231;29;20045;-83
2022/04/11 06:49:01;;;;;;;6.65;2.22;;;7.90;99.90;;;;;;4918160;29;20058;-84
2022/04/11 06:51:28;;;;;;;8.60;2.30;;;8.00;99.90;;;;;;4918090;29;20025;-81
2022/04/11 06:53:53;;;;;;;11.20;2.75;;;8.10;99.90;;;;;;4903006;29;20037;-82
2022/04/11 06:56:19;;;;;;;7.30;2.50;;;8.20;99.90;;;;;;4901649;29;20013;-85
2022/04/11 06:58:45;;;;;;;7.85;2.50;;;8.20;99.90;;;;;;4903094;29;20060;-84
2022/04/11 07:01:11;;;;;;;6.95;2.58;;;8.30;99.90;;;;;;4903216;29;20009;-84
2022/04/11 07:03:36;;;;;;;5.03;2.65;;;8.40;99.80;;;;;;4903289;29;20040;-83
2022/04/11 07:06:02;;;;;;;10.02;2.58;;;8.40;99.80;;;;;;4903299;29;20025;-85
2022/04/11 07:08:28;;;;;;;12.82;2.72;;;8.40;99.70;;;;;;4901616;29;20069;-85
2022/04/11 07:10:54;;;;;;;7.28;2.78;;;8.50;99.50;;;;;;4916819;29;20033;-84
2022/04/11 07:13:20;;;;;;;7.38;2.67;;;8.50;99.40;;;;;;4901766;29;20040;-81
2022/04/11 07:15:46;;;;;;;13.30;3.30;;;8.60;99.50;;;;;;4902077;29;20021;-83
2022/04/11 07:18:12;;;;;;;9.73;2.63;;;8.70;99.50;;;;;;4901407;29;20036;-83
2022/04/11 07:20:38;;;;;;;8.57;2.67;;;8.80;99.10;;;;;;4902449;29;20077;-85
2022/04/11 07:23:04;;;;;;;11.93;3.10;;;8.70;99.10;;;;;;4902276;29;20085;-85
2022/04/11 07:25:30;;;;;;;10.70;2.60;;;8.70;98.90;;;;;;4901967;29;20021;-84
2022/04/11 07:27:56;;;;;;;8.15;2.58;;;8.80;98.50;;;;;;4902158;29;20034;-81
2022/04/11 07:30:21;;;;;;;6.75;2.40;;;8.70;98.60;;;;;;4901891;29;20037;-82
2022/04/11 07:32:47;;;;;;;6.18;2.40;;;8.70;98.50;;;;;;4912901;29;20033;-81
2022/04/11 07:35:13;;;;;;;4.38;2.60;;;8.60;98.70;;;;;;4907337;29;20025;-84
2022/04/11 07:37:39;;;;;;;7.65;2.55;;;8.60;98.70;;;;;;4909868;29;20029;-82
2022/04/11 07:40:05;;;;;;;5.60;2.88;;;8.70;98.70;;;;;;4907344;29;20025;-85
2022/04/11 07:42:31;;;;;;;9.43;3.15;;;8.80;98.40;;;;;;4907394;29;20052;-85
2022/04/11 07:44:57;;;;;;;12.70;2.67;;;8.90;98.40;;;;;;4901006;29;20028;-86
2022/04/11 07:47:22;;;;;;;5.63;2.30;;;8.90;98.00;;;;;;4898892;29;20033;-86
2022/04/11 07:49:48;;;;;;;9.73;2.50;;;9.00;98.00;;;;;;4910770;29;20040;-83
2022/04/11 07:52:14;;;;;;;11.55;3.15;;;8.90;97.90;;;;;;4897965;29;20071;-84
2022/04/11 07:54:40;;;;;;;4.00;2.10;;;9.00;98.10;;;;;;4899317;29;20040;-85
2022/04/11 07:57:08;;;;;;;7.90;2.50;;;9.10;97.70;;;;;;4896152;29;20025;-87
2022/04/11 07:59:34;;;;;;;8.05;2.50;;;9.10;97.50;;;;;;4892821;29;20048;-85
2022/04/11 08:02:00;;;;;;;10.25;2.90;;;9.10;96.90;;;;;;4904570;29;20037;-85
2022/04/11 08:04:26;;;;;;;7.97;2.38;;;9.10;97.20;;;;;;4895478;29;20115;-86
2022/04/11 08:06:51;;;;;;;8.82;2.45;;;9.20;96.80;;;;;;4913151;29;20029;-85
2022/04/11 08:09:18;;;;;;;6.47;2.30;;;9.30;96.90;;;;;;4889639;29;20021;-83
2022/04/11 08:11:44;;;;;;;6.07;2.47;;;9.40;96.90;;;;;;4899129;29;20025;-85
2022/04/11 08:14:10;;;;;;;6.50;2.47;;;9.60;96.40;;;;;;4898777;29;20043;-86
2022/04/11 08:16:36;;;;;;;10.77;2.35;;;9.80;95.40;;;;;;4898782;29;20052;-85
2022/04/11 08:19:02;;;;;;;10.13;2.55;;;9.90;95.10;;;;;;4897090;29;20053;-83
2022/04/11 08:21:28;;;;;;;18.55;6.72;;;9.70;95.10;;;;;;4899255;29;20021;-84
2022/04/11 08:23:53;;;;;;;3.20;2.20;;;9.50;95.20;;;;;;4898800;29;20053;-87
2022/04/11 08:26:19;;;;;;;8.30;2.60;;;9.70;95.30;;;;;;4897221;29;20057;-85
2022/04/11 08:28:45;;;;;;;6.90;2.00;;;9.90;94.80;;;;;;4897296;29;20029;-88
2022/04/11 08:31:11;;;;;;;4.32;1.83;;;10.10;93.90;;;;;;4895227;29;20209;-88
2022/04/11 08:33:37;;;;;;;7.55;2.25;;;10.10;93.60;;;;;;4894912;29;20033;-87
2022/04/11 08:36:03;;;;;;;6.78;2.47;;;10.20;93.10;;;;;;4902125;29;20093;-86
2022/04/11 08:38:29;;;;;;;10.93;2.83;;;10.30;93.40;;;;;;4900037;29;20061;-88
2022/04/11 08:40:55;;;;;;;8.80;2.10;;;10.40;92.70;;;;;;4905583;29;20017;-83
2022/04/11 08:43:24;;;;;;;9.15;2.45;;;10.60;92.00;;;;;;4906148;29;20339;-82
2022/04/11 08:45:53;;;;;;;5.00;1.90;;;10.70;92.20;;;;;;4906392;29;20022;-83
2022/04/11 08:48:22;;;;;;;5.47;2.25;;;10.70;92.10;;;;;;4904697;29;20001;-84
2022/04/11 08:50:49;;;;;;;5.20;2.20;;;10.70;92.20;;;;;;4905883;29;20057;-82
2022/04/11 08:53:22;;;;;;;6.25;2.13;;;10.70;91.70;;;;;;4905832;29;20017;-84
2022/04/11 08:55:49;;;;;;;6.53;2.10;;;10.60;91.60;;;;;;4886969;29;20097;-81
2022/04/11 08:58:15;;;;;;;6.60;1.92;;;10.70;91.70;;;;;;4887558;29;20017;-82
2022/04/11 09:00:41;;;;;;;2.90;1.85;;;10.80;91.40;;;;;;4905540;29;20021;-84
2022/04/11 09:03:08;;;;;;;2.88;1.67;;;10.70;90.70;;;;;;4919399;29;20056;-82
2022/04/11 09:05:34;;;;;;;6.60;2.15;;;10.60;90.80;;;;;;4900993;29;20221;-86
2022/04/11 09:08:00;;;;;;;7.07;1.77;;;10.50;90.90;;;;;;4908725;29;20028;-86
2022/04/11 09:10:37;;;;;;;6.78;1.80;;;10.50;90.40;;;;;;4892313;29;20036;-87
2022/04/11 09:13:07;;;;;;;5.10;1.77;;;10.50;90.30;;;;;;4896055;29;20033;-85
2022/04/11 09:15:45;;;;;;;7.97;1.80;;;10.60;89.70;;;;;;4898622;29;20047;-85
2022/04/11 09:18:11;;;;;;;4.20;2.05;;;10.80;90.20;;;;;;4902652;29;20017;-84
2022/04/11 09:20:41;;;;;;;5.78;1.90;;;11.40;89.40;;;;;;4895251;29;20073;-82
2022/04/11 09:23:18;;;;;;;4.75;2.42;;;11.90;87.60;;;;;;4917909;29;20145;-84
2022/04/11 09:26:11;;;;;;;8.30;2.50;;;12.60;85.30;;;;;;4902074;29;20048;-86
2022/04/11 09:28:37;;;;;;;6.90;1.80;;;13.70;83.90;;;;;;4907471;29;20041;-86
2022/04/11 09:31:06;;;;;;;6.25;2.05;;;14.60;79.70;;;;;;4896465;29;20084;-84
2022/04/11 09:33:38;;;;;;;11.45;2.10;;;16.00;75.70;;;;;;4899855;29;20575;-84
2022/04/11 09:36:04;;;;;;;5.15;1.65;;;17.20;70.60;;;;;;4906579;29;20033;-83
2022/04/11 09:38:36;;;;;;;3.50;1.45;;;18.50;67.30;;;;;;4903420;29;20036;-83
2022/04/11 09:41:02;;;;;;;4.13;1.40;;;19.40;62.40;;;;;;4919328;29;20049;-82
2022/04/11 09:43:32;;;;;;;3.13;1.40;;;20.10;59.60;;;;;;4903786;29;20239;-85
2022/04/11 09:46:00;;;;;;;5.97;1.58;;;21.30;56.00;;;;;;4903034;29;20059;-86
2022/04/11 09:48:32;;;;;;;3.33;1.30;;;21.70;54.60;;;;;;4898932;29;20033;-86
2022/04/11 09:51:01;;;;;;;5.35;1.80;;;22.60;52.10;;;;;;4902138;29;20029;-86
2022/04/11 09:53:32;;;;;;;6.55;1.73;;;24.00;50.40;;;;;;4894326;29;20021;-85
2022/04/11 09:56:04;;;;;;;3.15;1.50;;;24.90;48.10;;;;;;4873005;29;20041;-87
2022/04/11 09:58:34;;;;;;;5.35;1.60;;;25.50;47.00;;;;;;4896210;29;20033;-86
2022/04/11 10:01:01;;;;;;;4.57;1.90;;;25.90;45.30;;;;;;4888415;29;20080;-86
2022/04/11 10:03:29;;;;;;;4.82;1.60;;;25.60;45.20;;;;;;4887901;29;20045;-86
2022/04/11 10:05:56;;;;;;;3.10;1.55;;;25.80;44.60;;;;;;4893359;29;20091;-85
2022/04/11 10:08:27;;;;;;;4.65;1.50;;;25.30;44.00;;;;;;4887349;29;20397;-87
2022/04/11 10:10:56;;;;;;;4.35;1.45;;;25.10;44.20;;;;;;4882788;29;20033;-84
2022/04/11 10:13:22;;;;;;;8.90;1.95;;;25.60;43.60;;;;;;4893847;29;20025;-85
2022/04/11 10:15:49;;;;;;;4.82;1.40;;;25.60;43.60;;;;;;4900846;29;20449;-84
2022/04/11 10:18:19;;;;;;;4.00;1.40;;;26.40;43.10;;;;;;4896159;29;20033;-86
2022/04/11 10:21:12;;;;;;;4.65;1.60;;;27.60;42.30;;;;;;4886620;29;20119;-88
2022/04/11 10:23:53;;;;;;;4.35;1.40;;;28.20;40.90;;;;;;4885236;29;20099;-87
2022/04/11 10:26:19;;;;;;;2.92;1.30;;;27.30;40.90;;;;;;4887887;29;20068;-87
2022/04/11 10:28:51;;;;;;;4.22;1.63;;;25.90;41.90;;;;;;4887222;29;20029;-85
2022/04/11 10:31:18;;;;;;;3.80;1.55;;;25.90;42.50;;;;;;4888349;29;20044;-85
2022/04/11 10:33:47;;;;;;;9.73;1.90;;;26.60;41.80;;;;;;4885983;29;20045;-84
2022/04/11 10:36:29;;;;;;;6.10;1.60;;;26.70;41.80;;;;;;4889413;29;20150;-85
2022/04/11 10:39:16;;;;;;;4.97;1.90;;;26.90;41.50;;;;;;4895116;29;20029;-83
2022/04/11 10:41:54;;;;;;;3.58;1.50;;;27.30;41.10;;;;;;4891014;29;20029;-85
2022/04/11 10:44:39;;;;;;;4.20;1.73;;;28.40;41.00;;;;;;4886565;29;20464;-85
2022/04/11 10:47:08;;;;;;;4.63;1.58;;;28.00;40.60;;;;;;4890297;29;20029;-86
2022/04/11 10:50:01;;;;;;;5.35;1.55;;;27.50;40.80;;;;;;4890357;29;20118;-86
2022/04/11 10:52:35;;;;;;;5.00;1.92;;;28.00;40.30;;;;;;4895548;29;20505;-85
2022/04/11 10:55:19;;;;;;;4.07;1.70;;;28.30;40.60;;;;;;4913606;29;20029;-82
2022/04/11 10:57:55;;;;;;;3.67;1.42;;;27.90;40.10;;;;;;4902037;29;20056;-82
2022/04/11 11:00:32;;;;;;;3.88;1.38;;;28.00;39.70;;;;;;4902463;29;20040;-84
2022/04/11 11:02:59;;;;;;;2.50;1.30;;;29.60;39.40;;;;;;4898544;29;20037;-81
2022/04/11 11:05:25;;;;;;;4.50;1.67;;;30.20;39.20;;;;;;4916892;29;20037;-83
2022/04/11 11:08:13;;;;;;;4.93;1.58;;;29.50;38.80;;;;;;4900660;29;20085;-82
2022/04/11 11:11:01;;;;;;;3.30;1.42;;;29.50;38.40;;;;;;4902848;29;20088;-82
2022/04/11 11:13:36;;;;;;;3.50;1.20;;;28.20;38.50;;;;;;4909268;29;20022;-87
2022/04/11 11:16:07;;;;;;;3.28;1.52;;;28.20;38.10;;;;;;4899459;29;20089;-85
2022/04/11 11:18:48;;;;;;;2.15;1.35;;;28.10;38.40;;;;;;4911482;29;20031;-85
2022/04/11 11:21:17;;;;;;;4.30;1.40;;;29.10;38.40;;;;;;4894280;29;20044;-82
2022/04/11 11:24:02;;;;;;;4.55;1.42;;;29.80;37.70;;;;;;4900965;29;20028;-83
2022/04/11 11:26:29;;;;;;;5.38;1.50;;;31.20;36.70;;;;;;4930855;23;20056;-83
2022/04/11 11:28:55;;;;;;;2.58;1.35;;;30.70;36.10;;;;;;4911517;29;20070;-81
2022/04/11 11:31:22;;;;;;;5.47;1.55;;;29.80;36.90;;;;;;4894966;29;20029;-80
2022/04/11 11:33:51;;;;;;;5.60;1.50;;;29.60;36.50;;;;;;4910480;29;20083;-81
2022/04/11 11:36:17;;;;;;;2.88;1.25;;;30.10;36.30;;;;;;4913479;29;20278;-80
2022/04/11 11:38:42;;;;;;;5.28;1.75;;;29.40;36.30;;;;;;4911101;29;20036;-82
2022/04/11 11:41:08;;;;;;;6.32;1.63;;;28.60;37.00;;;;;;4913518;29;20159;-81
2022/04/11 11:43:35;;;;;;;3.55;1.23;;;27.70;37.00;;;;;;4909712;29;20020;-81
2022/04/11 11:46:06;;;;;;;3.13;1.30;;;26.90;37.40;;;;;;4913679;29;20043;-82
2022/04/11 11:48:33;;;;;;;3.13;1.40;;;27.40;37.20;;;;;;4917624;29;20060;-81
2022/04/11 11:51:02;;;;;;;4.13;1.25;;;28.00;36.50;;;;;;4918431;29;20019;-82
2022/04/11 11:53:43;;;;;;;3.15;1.30;;;28.90;36.30;;;;;;4914070;29;20059;-81
2022/04/11 11:56:09;;;;;;;2.92;1.20;;;29.20;36.30;;;;;;4916414;29;20036;-82
2022/04/11 11:58:39;;;;;;;2.42;1.17;;;29.60;36.20;;;;;;4913906;29;20042;-83
2022/04/11 12:01:06;;;;;;;4.97;1.27;;;30.70;35.80;;;;;;4913362;29;20044;-83
2022/04/11 12:06:26;;;;;;;;;;;30.80;34.80;;;;;;4917831;29;20052;-81
2022/04/11 12:08:57;;;;;;;2.90;1.50;;;29.80;34.90;;;;;;4922486;29;19938;-80
2022/04/11 12:11:24;;;;;;;3.90;1.45;;;29.70;35.30;;;;;;4916731;29;20039;-82
2022/04/11 12:14:03;;;;;;;14.38;7.68;;;30.70;35.10;;;;;;4914377;29;20029;-83
2022/04/11 12:16:29;;;;;;;3.28;1.00;;;31.20;34.60;;;;;;4918233;29;20024;-81
2022/04/11 12:19:04;;;;;;;2.55;1.48;;;31.30;34.30;;;;;;4921693;29;20025;-80
2022/04/11 12:21:32;;;;;;;2.45;1.13;;;30.30;34.30;;;;;;4907551;29;20521;-81
2022/04/11 12:23:59;;;;;;;2.42;1.25;;;30.30;34.70;;;;;;4910501;29;20028;-81
2022/04/11 12:26:31;;;;;;;3.55;1.40;;;30.80;34.90;;;;;;4910751;29;20068;-80
2022/04/11 12:29:00;;;;;;;2.63;1.40;;;30.70;35.20;;;;;;4900474;29;20100;-81
2022/04/11 12:31:26;;;;;;;4.18;1.55;;;30.00;34.90;;;;;;4915644;29;20024;-80
2022/04/11 12:33:52;;;;;;;3.58;1.50;;;29.20;34.60;;;;;;4914855;29;20036;-80
2022/04/11 12:36:28;;;;;;;2.63;1.25;;;27.60;35.30;;;;;;4913382;29;20045;-81
2022/04/11 12:39:20;;;;;;;3.88;1.65;;;26.60;35.90;;;;;;4910097;29;20347;-78
2022/04/11 12:41:49;;;;;;;3.33;1.42;;;26.70;35.90;;;;;;4912753;29;20501;-81
2022/04/11 12:44:14;;;;;;;2.88;1.60;;;27.00;35.70;;;;;;4915303;29;20090;-80
2022/04/11 12:46:42;;;;;;;3.47;1.40;;;27.20;35.90;;;;;;4923521;29;20107;-80
2022/04/11 12:49:09;;;;;;;7.43;1.52;;;26.70;35.90;;;;;;4904687;29;20056;-79
2022/04/11 12:51:36;;;;;;;6.38;1.98;;;25.60;36.10;;;;;;4921732;29;20041;-81
2022/04/11 12:54:04;;;;;;;1.83;1.30;;;24.90;36.90;;;;;;4917531;29;20048;-82
2022/04/11 12:56:49;;;;;;;4.28;1.67;;;24.60;36.80;;;;;;4909356;29;20033;-82
2022/04/11 12:59:28;;;;;;;5.15;1.23;;;25.50;36.60;;;;;;4913623;29;20032;-82